Time;durP1;ratioP1;P1;durP2;ratioP2;P2;SDS_P1;SDS_P2;PMS_P1;PMS_P2;Temp;Humidity;BMP_temperature;BMP_pressure;BME280_temperature;BME280_humidity;BME280_pressure;Samples;Min_cycle;Max_cycle;Signal;HPM_P1;HPM_P2
2022/01/03 00:00:22;;;;;;;14.37;5.80;;;8.90;99.90;;;;;;5040311;28;20519;-80
2022/01/03 00:02:49;;;;;;;13.97;6.43;;;8.90;99.90;;;;;;5035407;28;20581;-80
2022/01/03 00:05:24;;;;;;;12.83;6.20;;;8.90;99.90;;;;;;5043111;28;20202;-80
2022/01/03 00:07:50;;;;;;;18.87;6.83;;;8.80;99.90;;;;;;5036340;28;20212;-79
2022/01/03 00:10:17;;;;;;;17.50;7.87;;;8.90;99.90;;;;;;5023579;28;20199;-79
2022/01/03 00:12:46;;;;;;;19.87;7.77;;;8.90;99.90;;;;;;5036546;28;20641;-81
2022/01/03 00:15:14;;;;;;;19.20;6.43;;;8.90;99.90;;;;;;5039115;28;20198;-81
2022/01/03 00:17:41;;;;;;;18.90;7.20;;;8.80;99.90;;;;;;5044584;28;20201;-80
2022/01/03 00:20:08;;;;;;;20.70;6.67;;;8.80;99.90;;;;;;5033947;28;20184;-80
2022/01/03 00:22:40;;;;;;;10.83;6.00;;;8.80;99.90;;;;;;5052749;28;20632;-79
2022/01/03 00:25:15;;;;;;;15.10;6.17;;;8.90;99.90;;;;;;5043108;28;20173;-79
2022/01/03 00:27:58;;;;;;;11.07;6.07;;;8.70;99.90;;;;;;5026938;28;20255;-79
2022/01/03 00:30:25;;;;;;;12.07;4.80;;;8.70;99.90;;;;;;5031682;28;20178;-79
2022/01/03 00:32:52;;;;;;;9.50;4.20;;;8.60;99.90;;;;;;5042435;28;20296;-81
2022/01/03 00:35:19;;;;;;;9.77;4.60;;;8.50;99.90;;;;;;5051503;28;20542;-79
2022/01/03 00:37:46;;;;;;;6.57;3.77;;;8.50;99.90;;;;;;5040353;28;20181;-81
2022/01/03 00:40:18;;;;;;;9.63;3.30;;;8.40;99.90;;;;;;5043089;28;20181;-80
2022/01/03 00:42:44;;;;;;;7.80;3.40;;;8.30;99.90;;;;;;5032801;28;20707;-80
2022/01/03 00:45:11;;;;;;;7.63;3.03;;;8.30;99.90;;;;;;5033186;28;20217;-79
2022/01/03 00:47:38;;;;;;;5.83;3.17;;;8.20;99.90;;;;;;5042642;28;20213;-79
2022/01/03 00:50:10;;;;;;;7.53;2.83;;;8.20;99.90;;;;;;5039034;28;20178;-79
2022/01/03 00:52:36;;;;;;;6.97;2.90;;;8.20;99.90;;;;;;5050795;28;20668;-80
2022/01/03 00:55:04;;;;;;;5.10;2.73;;;8.20;99.90;;;;;;5037521;28;20188;-80
2022/01/03 00:57:42;;;;;;;6.80;2.40;;;8.20;99.90;;;;;;5036920;28;20626;-79
2022/01/03 01:00:09;;;;;;;4.50;2.10;;;8.10;99.90;;;;;;5045712;28;20166;-79
2022/01/03 01:02:43;;;;;;;5.70;2.43;;;8.10;99.90;;;;;;5056511;28;20182;-79
2022/01/03 01:05:09;;;;;;;5.63;2.13;;;8.00;99.90;;;;;;5036030;28;20190;-78
2022/01/03 01:07:38;;;;;;;6.27;2.13;;;8.10;99.90;;;;;;5047810;28;20185;-79
2022/01/03 01:10:06;;;;;;;6.07;1.80;;;8.10;99.90;;;;;;5055317;28;20185;-79
2022/01/03 01:12:33;;;;;;;2.07;1.60;;;8.00;99.90;;;;;;5032430;28;20177;-78
2022/01/03 01:14:59;;;;;;;3.37;1.57;;;8.00;99.90;;;;;;5051098;28;20173;-79
2022/01/03 01:17:26;;;;;;;3.33;1.47;;;8.00;99.90;;;;;;5049406;28;20173;-79
2022/01/03 01:19:54;;;;;;;3.10;1.50;;;8.00;99.90;;;;;;5040393;28;20169;-79
2022/01/03 01:22:21;;;;;;;4.53;1.20;;;7.90;99.90;;;;;;5035465;28;20526;-79
2022/01/03 01:24:58;;;;;;;4.17;1.23;;;7.90;99.90;;;;;;5048993;28;20173;-81
2022/01/03 01:30:11;;;;;;;3.80;1.13;;;7.90;99.90;;;;;;5047827;28;20203;-79
2022/01/03 01:32:41;;;;;;;3.80;1.30;;;7.90;99.90;;;;;;5033113;28;20181;-79
2022/01/03 01:35:08;;;;;;;3.10;1.30;;;7.90;99.90;;;;;;5052159;28;20182;-79
2022/01/03 01:37:35;;;;;;;2.60;1.10;;;7.80;99.90;;;;;;5038132;28;20256;-80
2022/01/03 01:40:02;;;;;;;3.90;1.13;;;7.80;99.90;;;;;;5035114;28;20178;-80
2022/01/03 01:42:30;;;;;;;3.53;1.40;;;7.80;99.90;;;;;;5045778;28;20514;-79
2022/01/03 01:44:59;;;;;;;3.77;1.40;;;7.80;99.90;;;;;;5032978;28;20192;-80
2022/01/03 01:47:28;;;;;;;3.93;1.57;;;7.80;99.90;;;;;;5040505;28;20193;-80
2022/01/03 01:49:56;;;;;;;2.17;1.63;;;7.80;99.90;;;;;;5046365;28;20189;-79
2022/01/03 01:52:25;;;;;;;5.17;1.80;;;7.80;99.90;;;;;;5040350;28;20166;-80
2022/01/03 01:54:58;;;;;;;3.33;2.07;;;7.70;99.90;;;;;;5034260;28;20167;-79
2022/01/03 01:57:55;;;;;;;3.57;2.23;;;7.70;99.90;;;;;;5034707;28;20528;-80
2022/01/03 02:00:27;;;;;;;2.57;2.00;;;7.80;99.90;;;;;;5007126;28;20661;-79
2022/01/03 02:03:24;;;;;;;4.57;2.00;;;7.80;99.90;;;;;;5046902;28;20221;-80
2022/01/03 02:06:10;;;;;;;3.57;2.00;;;7.80;99.90;;;;;;5034736;28;20189;-78
2022/01/03 02:08:44;;;;;;;3.90;1.90;;;7.80;99.90;;;;;;5033558;28;20189;-79
2022/01/03 02:11:37;;;;;;;3.40;2.10;;;7.80;99.90;;;;;;5048033;28;20173;-79
2022/01/03 02:14:11;;;;;;;3.67;2.13;;;7.70;99.90;;;;;;5031081;28;20165;-79
2022/01/03 02:16:38;;;;;;;5.87;1.90;;;7.70;99.90;;;;;;5028881;28;20216;-79
2022/01/03 02:19:05;;;;;;;4.20;1.90;;;7.70;99.90;;;;;;5040563;28;20176;-79
2022/01/03 02:21:31;;;;;;;3.20;1.50;;;7.70;99.90;;;;;;5027695;28;20546;-79
2022/01/03 02:23:57;;;;;;;4.17;1.63;;;7.60;99.90;;;;;;5038977;28;20193;-79
2022/01/03 02:26:23;;;;;;;2.90;1.60;;;7.50;99.90;;;;;;5032761;28;20197;-79
2022/01/03 02:28:50;;;;;;;3.47;1.40;;;7.50;99.90;;;;;;5034379;28;20205;-79
2022/01/03 02:31:17;;;;;;;1.70;1.20;;;7.50;99.90;;;;;;5035176;28;20185;-79
2022/01/03 02:33:44;;;;;;;2.10;1.10;;;7.50;99.90;;;;;;5037888;28;20258;-79
2022/01/03 02:36:11;;;;;;;2.27;1.43;;;7.50;99.90;;;;;;5038572;28;20352;-79
2022/01/03 02:38:38;;;;;;;1.57;1.13;;;7.40;99.90;;;;;;5048445;28;20216;-79
2022/01/03 02:41:03;;;;;;;2.07;1.40;;;7.40;99.90;;;;;;5031773;28;20205;-79
2022/01/03 02:43:30;;;;;;;3.63;1.60;;;7.40;99.90;;;;;;5036316;28;20188;-79
2022/01/03 02:45:57;;;;;;;2.83;1.67;;;7.40;99.90;;;;;;5047008;28;20317;-79
2022/01/03 02:48:23;;;;;;;3.13;1.60;;;7.40;99.90;;;;;;5033754;28;20228;-79
2022/01/03 02:50:51;;;;;;;3.00;1.50;;;7.40;99.90;;;;;;5034218;28;20185;-79
2022/01/03 02:53:17;;;;;;;4.23;1.47;;;7.40;99.90;;;;;;5033890;28;20889;-79
2022/01/03 02:55:43;;;;;;;2.93;1.40;;;7.40;99.90;;;;;;5045781;28;20201;-79
2022/01/03 02:58:09;;;;;;;7.17;1.83;;;7.30;99.90;;;;;;5042699;28;20230;-80
2022/01/03 03:00:47;;;;;;;3.57;1.70;;;7.30;99.90;;;;;;5051348;28;20176;-80
2022/01/03 03:03:20;;;;;;;3.83;1.40;;;7.40;99.90;;;;;;5051062;28;20939;-79
2022/01/03 03:05:47;;;;;;;4.23;1.70;;;7.30;99.90;;;;;;5043200;28;20204;-80
2022/01/03 03:08:14;;;;;;;5.37;1.37;;;7.30;99.90;;;;;;5055854;28;20206;-79
2022/01/03 03:10:40;;;;;;;5.53;1.50;;;7.30;99.90;;;;;;5050802;28;20177;-77
2022/01/03 03:13:07;;;;;;;2.97;1.30;;;7.30;99.90;;;;;;5040721;28;20166;-78
2022/01/03 03:15:34;;;;;;;5.13;1.90;;;7.30;99.90;;;;;;5034381;28;20205;-78
2022/01/03 03:18:01;;;;;;;8.30;1.73;;;7.20;99.90;;;;;;5033557;28;20569;-79
2022/01/03 03:20:29;;;;;;;6.93;1.70;;;7.20;99.90;;;;;;5034666;28;20565;-79
2022/01/03 03:22:57;;;;;;;7.23;1.53;;;7.20;99.90;;;;;;5038303;28;20183;-79
2022/01/03 03:25:27;;;;;;;8.47;2.20;;;7.20;99.90;;;;;;5037364;28;20207;-79
2022/01/03 03:27:58;;;;;;;4.70;2.20;;;7.30;99.90;;;;;;5027855;28;20205;-79
2022/01/03 03:30:33;;;;;;;9.33;2.90;;;7.30;99.90;;;;;;5047037;28;20169;-80
2022/01/03 03:33:14;;;;;;;6.53;2.83;;;7.30;99.90;;;;;;5037287;28;20200;-79
2022/01/03 03:35:51;;;;;;;7.07;2.80;;;7.30;99.90;;;;;;5038555;28;20189;-79
2022/01/03 03:38:17;;;;;;;5.07;2.70;;;7.30;99.90;;;;;;5048176;28;20175;-79
2022/01/03 03:40:45;;;;;;;8.33;2.80;;;7.30;99.90;;;;;;5045937;28;20169;-79
2022/01/03 03:43:13;;;;;;;5.93;2.60;;;7.40;99.90;;;;;;5044806;28;20265;-79
2022/01/03 03:45:38;;;;;;;7.93;2.70;;;7.30;99.90;;;;;;5056563;28;20219;-79
2022/01/03 03:48:06;;;;;;;7.30;2.40;;;7.40;99.90;;;;;;5046066;28;20202;-79
2022/01/03 03:50:32;;;;;;;8.50;2.70;;;7.40;99.90;;;;;;5056632;28;20184;-79
2022/01/03 03:52:58;;;;;;;11.37;2.50;;;7.30;99.90;;;;;;5053628;28;20244;-79
2022/01/03 03:55:24;;;;;;;10.93;2.97;;;7.40;99.90;;;;;;5057501;28;20222;-80
2022/01/03 03:57:50;;;;;;;10.27;3.27;;;7.40;99.90;;;;;;5051082;28;20203;-79
2022/01/03 04:00:18;;;;;;;8.60;2.87;;;7.50;99.90;;;;;;5058060;28;20193;-79
2022/01/03 04:02:49;;;;;;;8.23;2.80;;;7.50;99.90;;;;;;5048800;28;20178;-79
2022/01/03 04:05:16;;;;;;;8.70;2.90;;;7.50;99.90;;;;;;5046736;28;20206;-79
2022/01/03 04:07:44;;;;;;;12.43;3.13;;;7.60;99.90;;;;;;5050882;28;20204;-80
2022/01/03 04:10:11;;;;;;;11.03;2.93;;;7.60;99.90;;;;;;5062913;28;20185;-79
2022/01/03 04:12:39;;;;;;;11.03;3.10;;;7.60;99.90;;;;;;5062832;28;20172;-79
2022/01/03 04:15:13;;;;;;;9.83;3.40;;;7.60;99.90;;;;;;5052914;28;20234;-80
2022/01/03 04:17:39;;;;;;;9.93;3.37;;;7.60;99.90;;;;;;5053059;28;20296;-79
2022/01/03 04:20:06;;;;;;;9.87;3.27;;;7.70;99.90;;;;;;5059663;28;20181;-80
2022/01/03 04:22:32;;;;;;;15.80;3.10;;;7.80;99.90;;;;;;5061976;28;20203;-80
2022/01/03 04:24:58;;;;;;;16.60;3.50;;;7.80;99.90;;;;;;5059351;28;20244;-80
2022/01/03 04:27:24;;;;;;;13.10;3.40;;;7.80;99.90;;;;;;5061935;28;20187;-80
2022/01/03 04:29:50;;;;;;;17.00;3.47;;;7.90;99.90;;;;;;5055921;28;20246;-80
2022/01/03 04:32:16;;;;;;;14.43;3.07;;;7.90;99.90;;;;;;5045823;28;20182;-80
2022/01/03 04:34:42;;;;;;;10.63;2.73;;;7.90;99.90;;;;;;5049817;28;20224;-80
2022/01/03 04:37:09;;;;;;;11.40;3.20;;;7.90;99.90;;;;;;5045691;28;20205;-79
2022/01/03 04:39:35;;;;;;;13.23;3.10;;;7.80;99.90;;;;;;5044039;28;20173;-80
2022/01/03 04:42:02;;;;;;;12.53;3.13;;;7.80;99.90;;;;;;5041615;28;20193;-80
2022/01/03 04:44:28;;;;;;;14.40;3.20;;;7.90;99.90;;;;;;5030029;28;20182;-80
2022/01/03 04:46:55;;;;;;;11.97;2.80;;;7.90;99.90;;;;;;5050741;28;20197;-80
2022/01/03 04:49:21;;;;;;;9.20;2.87;;;7.90;99.90;;;;;;5048986;28;20690;-80
2022/01/03 04:51:47;;;;;;;10.33;2.83;;;7.80;99.90;;;;;;5040383;28;20169;-79
2022/01/03 04:54:13;;;;;;;13.27;3.10;;;7.90;99.90;;;;;;5040785;28;20174;-80
2022/01/03 04:56:39;;;;;;;5.77;2.40;;;7.90;99.90;;;;;;5039505;28;20261;-80
2022/01/03 04:59:05;;;;;;;12.17;3.63;;;7.80;99.90;;;;;;5056679;28;20174;-80
2022/01/03 05:01:33;;;;;;;11.73;3.30;;;7.90;99.90;;;;;;5041228;28;20720;-80
2022/01/03 05:04:00;;;;;;;13.37;3.47;;;7.90;99.90;;;;;;5049895;28;20184;-80
2022/01/03 05:06:25;;;;;;;13.20;3.60;;;7.80;99.90;;;;;;5043401;28;20204;-79
2022/01/03 05:08:52;;;;;;;15.10;4.00;;;7.90;99.90;;;;;;5050421;28;20220;-79
2022/01/03 05:11:18;;;;;;;10.13;3.70;;;7.80;99.90;;;;;;5058276;28;20170;-79
2022/01/03 05:13:45;;;;;;;15.07;3.57;;;7.80;99.90;;;;;;5032232;28;20173;-79
2022/01/03 05:16:11;;;;;;;15.27;3.63;;;7.80;99.90;;;;;;5049999;28;20204;-79
2022/01/03 05:18:37;;;;;;;12.83;3.40;;;7.80;99.90;;;;;;5034456;28;20561;-79
2022/01/03 05:21:03;;;;;;;12.80;3.93;;;7.80;99.90;;;;;;5043957;28;20215;-79
2022/01/03 05:23:30;;;;;;;16.67;3.50;;;7.90;99.90;;;;;;5039764;28;20180;-79
2022/01/03 05:25:58;;;;;;;11.40;3.43;;;7.80;99.90;;;;;;5043016;28;20284;-80
2022/01/03 05:28:24;;;;;;;20.77;3.73;;;7.80;99.90;;;;;;5042748;28;20196;-79
2022/01/03 05:30:52;;;;;;;19.73;3.40;;;7.80;99.90;;;;;;5040039;28;20166;-78
2022/01/03 05:33:18;;;;;;;13.30;3.13;;;7.80;99.90;;;;;;5052113;28;20256;-80
2022/01/03 05:35:44;;;;;;;23.60;3.90;;;7.80;99.90;;;;;;5050516;28;20221;-79
2022/01/03 05:38:10;;;;;;;20.13;4.10;;;7.90;99.90;;;;;;5062833;28;20170;-79
2022/01/03 05:40:35;;;;;;;21.97;4.53;;;7.80;99.90;;;;;;5055021;28;20227;-79
2022/01/03 05:43:01;;;;;;;23.10;4.33;;;7.80;99.90;;;;;;5054339;28;20164;-79
2022/01/03 05:45:27;;;;;;;21.70;3.73;;;7.90;99.90;;;;;;5062237;28;20219;-79
2022/01/03 05:47:55;;;;;;;16.70;3.77;;;7.80;99.90;;;;;;5060780;28;20205;-79
2022/01/03 05:50:22;;;;;;;23.03;3.80;;;7.80;99.90;;;;;;5052294;28;20189;-79
2022/01/03 05:52:48;;;;;;;17.07;3.20;;;7.90;99.90;;;;;;5045929;28;20960;-79
2022/01/03 05:55:15;;;;;;;14.87;3.43;;;7.90;99.90;;;;;;5063239;28;20811;-79
2022/01/03 05:57:42;;;;;;;15.97;3.37;;;7.90;99.90;;;;;;5061245;28;20169;-78
2022/01/03 06:00:15;;;;;;;16.73;3.77;;;8.00;99.90;;;;;;5055241;28;20182;-78
2022/01/03 06:02:43;;;;;;;17.60;3.40;;;8.00;99.90;;;;;;5061793;28;20170;-79
2022/01/03 06:05:18;;;;;;;17.00;3.97;;;8.10;99.90;;;;;;5053784;28;20281;-79
2022/01/03 06:07:44;;;;;;;18.20;3.23;;;8.10;99.90;;;;;;5045292;28;20256;-78
2022/01/03 06:10:16;;;;;;;15.77;3.30;;;8.00;99.90;;;;;;5064732;28;20173;-77
2022/01/03 06:12:45;;;;;;;18.90;3.30;;;8.00;99.90;;;;;;5056886;28;20301;-78
2022/01/03 06:15:13;;;;;;;20.50;3.67;;;8.00;99.90;;;;;;5048921;28;20189;-78
2022/01/03 06:17:40;;;;;;;22.70;3.57;;;8.00;99.90;;;;;;5065079;28;20168;-79
2022/01/03 06:20:10;;;;;;;17.10;3.57;;;8.00;99.90;;;;;;5047031;28;20162;-78
2022/01/03 06:22:39;;;;;;;19.43;4.73;;;8.00;99.90;;;;;;5063838;28;20185;-78
2022/01/03 06:25:05;;;;;;;19.13;4.10;;;8.00;99.90;;;;;;5049380;28;20249;-79
2022/01/03 06:27:32;;;;;;;22.67;4.60;;;7.90;99.90;;;;;;5062635;28;20176;-78
2022/01/03 06:29:57;;;;;;;22.00;3.90;;;8.00;99.90;;;;;;5063392;28;20241;-79
2022/01/03 06:32:23;;;;;;;17.97;3.50;;;8.00;99.90;;;;;;5055173;28;20166;-79
2022/01/03 06:34:52;;;;;;;16.40;3.17;;;8.00;99.90;;;;;;5056523;28;20182;-79
2022/01/03 06:37:19;;;;;;;18.80;3.57;;;8.10;99.90;;;;;;5062005;28;20166;-78
2022/01/03 06:39:53;;;;;;;21.77;3.30;;;8.10;99.90;;;;;;5058195;28;20249;-78
2022/01/03 06:42:19;;;;;;;20.93;4.00;;;8.20;99.90;;;;;;5055346;28;20272;-78
2022/01/03 06:44:46;;;;;;;23.87;4.40;;;8.20;99.90;;;;;;5054985;28;20195;-78
2022/01/03 06:47:13;;;;;;;23.50;3.77;;;8.20;99.90;;;;;;5063104;28;20182;-79
2022/01/03 06:49:38;;;;;;;14.33;3.57;;;8.30;99.90;;;;;;5062419;28;20218;-78
2022/01/03 06:52:04;;;;;;;18.93;4.00;;;8.30;99.90;;;;;;5055498;28;20161;-79
2022/01/03 06:54:33;;;;;;;18.40;3.63;;;8.30;99.90;;;;;;5062200;28;20231;-78
2022/01/03 06:57:00;;;;;;;25.80;4.43;;;8.30;99.90;;;;;;5046798;28;20178;-79
2022/01/03 06:59:26;;;;;;;17.77;3.47;;;8.20;99.90;;;;;;5059057;28;20186;-80
2022/01/03 07:01:53;;;;;;;16.33;3.13;;;8.20;99.90;;;;;;5066932;28;20177;-80
2022/01/03 07:04:19;;;;;;;23.30;3.77;;;8.20;99.90;;;;;;5054371;28;20236;-78
2022/01/03 07:06:44;;;;;;;22.80;4.80;;;8.20;99.90;;;;;;5062086;28;20242;-79
2022/01/03 07:09:10;;;;;;;20.97;3.87;;;8.10;99.90;;;;;;5045856;28;20239;-79
2022/01/03 07:11:36;;;;;;;21.53;4.33;;;8.20;99.90;;;;;;5052065;28;20196;-79
2022/01/03 07:19:30;;;;;;;23.60;4.27;;;8.20;99.90;;;;;;5062306;28;20181;-79
2022/01/03 07:21:56;;;;;;;17.80;3.87;;;8.30;99.90;;;;;;5053909;28;20162;-79
2022/01/03 07:24:22;;;;;;;23.10;4.03;;;8.30;99.90;;;;;;5047099;28;20173;-78
2022/01/03 07:26:47;;;;;;;26.20;5.17;;;8.30;99.90;;;;;;5054024;28;20189;-79
2022/01/03 07:29:13;;;;;;;23.63;4.37;;;8.30;99.90;;;;;;5052553;28;20269;-79
2022/01/03 07:31:39;;;;;;;22.77;4.77;;;8.40;99.90;;;;;;5051216;28;20182;-80
2022/01/03 07:34:04;;;;;;;18.97;4.27;;;8.40;99.90;;;;;;5051029;28;20201;-79
2022/01/03 07:36:30;;;;;;;21.37;4.37;;;8.30;99.90;;;;;;5051723;28;20205;-78
2022/01/03 07:38:56;;;;;;;19.07;3.83;;;8.30;99.90;;;;;;5059027;28;20189;-80
2022/01/03 07:41:22;;;;;;;20.27;4.17;;;8.30;99.90;;;;;;5062109;28;20169;-80
2022/01/03 07:43:47;;;;;;;18.80;4.67;;;8.30;99.90;;;;;;5052568;28;20191;-81
2022/01/03 07:46:13;;;;;;;20.47;4.30;;;8.30;99.90;;;;;;5054091;28;20209;-80
2022/01/03 07:48:39;;;;;;;20.30;4.47;;;8.40;99.90;;;;;;5053844;28;20213;-80
2022/01/03 07:51:05;;;;;;;23.10;4.47;;;8.40;99.90;;;;;;5047165;28;20165;-78
2022/01/03 07:53:30;;;;;;;19.10;3.80;;;8.40;99.90;;;;;;5052206;28;20234;-78
2022/01/03 07:55:58;;;;;;;23.40;4.43;;;8.50;99.90;;;;;;5051564;28;20265;-79
2022/01/03 07:58:24;;;;;;;18.17;4.00;;;8.40;99.90;;;;;;5050289;28;20191;-80
2022/01/03 08:00:50;;;;;;;25.07;4.13;;;8.30;99.90;;;;;;5039982;28;20189;-80
2022/01/03 08:03:16;;;;;;;19.50;4.13;;;8.20;99.90;;;;;;5043002;28;20182;-80
2022/01/03 08:05:41;;;;;;;25.73;4.63;;;8.20;99.90;;;;;;5049824;28;20200;-80
2022/01/03 08:08:10;;;;;;;19.53;3.60;;;8.10;99.90;;;;;;5040685;28;20212;-80
2022/01/03 08:10:37;;;;;;;18.53;3.93;;;8.10;99.90;;;;;;5036970;28;20178;-80
2022/01/03 08:13:03;;;;;;;15.43;3.57;;;8.10;99.90;;;;;;5046443;28;20170;-80
2022/01/03 08:15:29;;;;;;;25.17;4.37;;;8.10;99.90;;;;;;5040186;28;20204;-81
2022/01/03 08:17:54;;;;;;;24.73;4.50;;;8.10;99.90;;;;;;5048240;28;20242;-81
2022/01/03 08:20:20;;;;;;;26.93;4.30;;;8.10;99.90;;;;;;5044022;28;20187;-80
2022/01/03 08:22:46;;;;;;;22.27;4.00;;;8.10;99.90;;;;;;5041436;28;20237;-80
2022/01/03 08:25:12;;;;;;;26.90;4.13;;;8.10;99.90;;;;;;5048005;28;20660;-80
2022/01/03 08:27:38;;;;;;;22.17;3.87;;;8.20;99.90;;;;;;5033441;28;20329;-80
2022/01/03 08:30:05;;;;;;;24.10;4.00;;;8.20;99.90;;;;;;5040295;28;20256;-80
2022/01/03 08:32:31;;;;;;;23.47;4.10;;;8.30;99.90;;;;;;5039403;28;20632;-80
2022/01/03 08:34:56;;;;;;;20.83;4.23;;;8.30;99.90;;;;;;5044960;28;20197;-80
2022/01/03 08:37:22;;;;;;;21.27;3.67;;;8.30;99.90;;;;;;5049681;28;20185;-80
2022/01/03 08:39:51;;;;;;;22.13;3.93;;;8.30;99.90;;;;;;5044195;28;20185;-78
2022/01/03 08:42:18;;;;;;;17.27;3.67;;;8.30;99.90;;;;;;5039758;28;20186;-80
2022/01/03 08:44:44;;;;;;;17.73;3.97;;;8.20;99.90;;;;;;5035579;28;20660;-80
2022/01/03 08:47:10;;;;;;;16.43;4.00;;;8.10;99.90;;;;;;5050904;28;20280;-80
2022/01/03 08:49:35;;;;;;;19.53;4.37;;;8.10;99.90;;;;;;5047392;28;20232;-80
2022/01/03 08:52:02;;;;;;;22.27;4.70;;;8.00;99.90;;;;;;5038643;28;20184;-81
2022/01/03 08:54:27;;;;;;;20.43;3.70;;;8.10;99.90;;;;;;5044346;28;20170;-80
2022/01/03 08:56:53;;;;;;;21.27;4.40;;;8.10;99.90;;;;;;5051806;28;20205;-80
2022/01/03 08:59:19;;;;;;;24.80;4.70;;;8.10;99.90;;;;;;5053858;28;20657;-80
2022/01/03 09:01:44;;;;;;;22.80;3.80;;;8.20;99.90;;;;;;5052414;28;20182;-80
2022/01/03 09:04:10;;;;;;;23.23;3.77;;;8.20;99.90;;;;;;5040506;28;20303;-79
2022/01/03 09:06:36;;;;;;;20.23;3.63;;;8.30;99.90;;;;;;5044367;28;20310;-80
2022/01/03 09:09:03;;;;;;;23.27;4.30;;;8.30;99.90;;;;;;5054743;28;20292;-81
2022/01/03 09:11:28;;;;;;;19.57;3.90;;;8.40;99.90;;;;;;5042482;28;20165;-80
2022/01/03 09:13:54;;;;;;;18.57;4.10;;;8.40;99.90;;;;;;5034148;28;20193;-80
2022/01/03 09:16:20;;;;;;;18.77;3.30;;;8.50;99.90;;;;;;5034392;28;20204;-80
2022/01/03 09:18:45;;;;;;;23.20;4.43;;;8.50;99.90;;;;;;5042611;28;20186;-80
2022/01/03 09:21:11;;;;;;;20.93;4.40;;;8.60;99.90;;;;;;5042815;28;20220;-80
2022/01/03 09:23:42;;;;;;;21.20;4.07;;;8.60;99.90;;;;;;5034486;28;20260;-80
2022/01/03 09:28:56;;;;;;;20.10;4.10;;;8.60;99.90;;;;;;5049568;28;20224;-80
2022/01/03 09:31:29;;;;;;;16.90;4.30;;;8.60;99.90;;;;;;5042067;28;20220;-80
2022/01/03 09:33:57;;;;;;;18.67;4.23;;;8.60;99.90;;;;;;5038060;28;20177;-81
2022/01/03 09:36:24;;;;;;;15.50;3.80;;;8.60;99.90;;;;;;5042904;28;20193;-81
2022/01/03 09:38:51;;;;;;;19.70;4.20;;;8.60;99.90;;;;;;5032592;28;20707;-81
2022/01/03 09:41:22;;;;;;;22.00;4.80;;;8.60;99.90;;;;;;5039840;28;20182;-81
2022/01/03 09:43:51;;;;;;;20.50;3.40;;;8.60;99.90;;;;;;5054025;28;20254;-81
2022/01/03 09:46:38;;;;;;;21.80;4.57;;;8.60;99.90;;;;;;5037918;28;20209;-81
2022/01/03 09:49:11;;;;;;;24.43;4.50;;;8.60;99.90;;;;;;5029172;28;20262;-81
2022/01/03 09:51:38;;;;;;;26.93;4.87;;;8.60;99.90;;;;;;5047320;28;20201;-80
2022/01/03 09:54:07;;;;;;;24.73;4.67;;;8.50;99.90;;;;;;5044862;28;20175;-81
2022/01/03 09:56:36;;;;;;;18.77;4.63;;;8.50;99.90;;;;;;5037579;28;20205;-81
2022/01/03 09:59:03;;;;;;;29.33;5.47;;;8.40;99.90;;;;;;5044561;28;20158;-81
2022/01/03 10:01:30;;;;;;;25.20;5.27;;;8.30;99.90;;;;;;5047013;28;20238;-81
2022/01/03 10:03:56;;;;;;;27.00;5.73;;;8.20;99.90;;;;;;5050572;28;20244;-81
2022/01/03 10:06:24;;;;;;;26.27;6.03;;;8.20;99.90;;;;;;5043065;28;20205;-79
2022/01/03 10:08:49;;;;;;;22.50;6.10;;;8.10;99.90;;;;;;5048302;28;20208;-80
2022/01/03 10:11:15;;;;;;;25.83;5.90;;;8.20;99.90;;;;;;5042283;28;20265;-80
2022/01/03 10:13:41;;;;;;;22.60;5.20;;;8.20;99.90;;;;;;5036003;28;20170;-80
2022/01/03 10:16:08;;;;;;;24.77;4.90;;;8.20;99.90;;;;;;5039984;28;20253;-79
2022/01/03 10:18:34;;;;;;;26.30;4.20;;;8.30;99.90;;;;;;5040196;28;20185;-80
2022/01/03 10:21:01;;;;;;;29.80;4.40;;;8.40;99.90;;;;;;5040582;28;20252;-80
2022/01/03 10:23:27;;;;;;;19.93;3.83;;;8.50;99.90;;;;;;5048255;28;20205;-80
2022/01/03 10:25:53;;;;;;;21.47;3.77;;;8.50;99.90;;;;;;5040747;28;20252;-81
2022/01/03 10:28:28;;;;;;;18.07;4.07;;;8.60;99.90;;;;;;5050762;28;20198;-81
2022/01/03 10:30:53;;;;;;;15.67;3.90;;;8.70;99.90;;;;;;5040220;28;20179;-81
2022/01/03 10:33:23;;;;;;;18.23;3.83;;;8.70;99.90;;;;;;5047175;28;20174;-80
2022/01/03 10:35:56;;;;;;;19.87;3.77;;;8.70;99.90;;;;;;5049670;28;20202;-81
2022/01/03 10:38:32;;;;;;;21.83;4.23;;;8.70;99.90;;;;;;5031684;28;20173;-81
2022/01/03 10:41:19;;;;;;;17.77;3.40;;;8.60;99.90;;;;;;5032830;28;20729;-80
2022/01/03 10:43:57;;;;;;;16.27;4.10;;;8.60;99.90;;;;;;5050377;28;20271;-81
2022/01/03 10:46:28;;;;;;;22.57;4.63;;;8.70;99.90;;;;;;5034563;28;20251;-80
2022/01/03 10:49:09;;;;;;;18.70;3.50;;;8.70;99.90;;;;;;5037482;28;20229;-79
2022/01/03 10:51:35;;;;;;;16.70;3.60;;;8.70;99.90;;;;;;5040337;28;20226;-80
2022/01/03 10:54:00;;;;;;;16.60;3.50;;;8.70;99.90;;;;;;5044028;28;20170;-82
2022/01/03 10:56:49;;;;;;;20.70;3.83;;;8.70;99.90;;;;;;5047704;28;20551;-82
2022/01/03 10:59:21;;;;;;;25.70;4.30;;;8.80;99.90;;;;;;5048597;28;20197;-81
2022/01/03 11:01:52;;;;;;;22.03;3.80;;;9.00;99.90;;;;;;5043266;28;20170;-81
2022/01/03 11:04:53;;;;;;;27.93;4.63;;;8.90;99.90;;;;;;5033173;28;20182;-81
2022/01/03 11:13:06;;;;;;;23.97;5.17;;;9.10;99.90;;;;;;5051586;28;20187;-81
2022/01/03 11:15:31;;;;;;;18.83;4.37;;;9.20;99.90;;;;;;5050710;28;20213;-80
2022/01/03 11:18:25;;;;;;;25.63;5.13;;;9.20;99.90;;;;;;5044907;28;20199;-81
2022/01/03 11:21:04;;;;;;;20.17;4.40;;;9.30;99.90;;;;;;5052468;28;20191;-81
2022/01/03 11:23:30;;;;;;;22.97;4.23;;;9.50;99.90;;;;;;5039029;28;20272;-81
2022/01/03 11:25:56;;;;;;;22.53;3.80;;;9.70;99.90;;;;;;5038826;28;20190;-82
2022/01/03 11:28:25;;;;;;;16.13;3.77;;;9.70;99.90;;;;;;5039027;28;20213;-83
2022/01/03 11:30:53;;;;;;;19.20;4.17;;;9.60;99.90;;;;;;5041378;28;20181;-82
2022/01/03 11:33:19;;;;;;;24.37;4.17;;;9.50;99.90;;;;;;5046400;28;20178;-83
2022/01/03 11:35:52;;;;;;;19.63;4.13;;;9.40;99.90;;;;;;5030684;28;20207;-80
2022/01/03 11:38:22;;;;;;;20.07;4.10;;;9.40;99.90;;;;;;5041830;28;20194;-82
2022/01/03 11:40:48;;;;;;;21.87;4.63;;;9.50;99.90;;;;;;5031032;28;20231;-82
2022/01/03 11:43:15;;;;;;;21.97;4.70;;;9.50;99.90;;;;;;5038812;28;20173;-82
2022/01/03 11:45:41;;;;;;;19.33;4.00;;;9.50;99.90;;;;;;5047679;28;20244;-82
2022/01/03 11:48:08;;;;;;;23.20;4.80;;;9.60;99.90;;;;;;5034223;28;20283;-83
2022/01/03 11:50:37;;;;;;;17.37;4.20;;;9.70;99.90;;;;;;5048475;28;20205;-82
2022/01/03 11:53:04;;;;;;;25.17;4.03;;;9.70;99.90;;;;;;5041467;28;20173;-82
2022/01/03 11:55:31;;;;;;;20.93;4.57;;;9.70;99.90;;;;;;5041830;28;20194;-82
2022/01/03 12:06:25;;;;;;;21.33;4.20;;;9.70;99.90;;;;;;5012932;28;20233;-80
2022/01/03 12:09:12;;;;;;;24.17;4.87;;;9.60;99.90;;;;;;5030536;28;20209;-82
2022/01/03 12:11:56;;;;;;;28.20;4.40;;;9.60;99.90;;;;;;5039202;28;20173;-80
2022/01/03 12:14:38;;;;;;;22.43;5.03;;;9.70;99.90;;;;;;5028340;28;20220;-81
2022/01/03 12:17:08;;;;;;;21.43;3.73;;;9.80;99.90;;;;;;5033717;28;20248;-82
2022/01/03 12:19:43;;;;;;;23.90;4.50;;;9.90;99.90;;;;;;5052426;28;20569;-81
2022/01/03 12:22:12;;;;;;;21.83;4.50;;;9.90;99.90;;;;;;5033717;28;20185;-81
2022/01/03 12:24:46;;;;;;;20.67;4.03;;;9.90;99.90;;;;;;5044245;28;20178;-81
2022/01/03 12:27:12;;;;;;;17.67;3.70;;;9.80;99.90;;;;;;5034295;28;20219;-81
2022/01/03 12:29:56;;;;;;;26.23;4.10;;;9.90;99.90;;;;;;5050148;28;20194;-81
2022/01/03 12:32:31;;;;;;;22.67;4.40;;;9.80;99.90;;;;;;5037872;28;20329;-82
2022/01/03 12:35:06;;;;;;;20.00;3.97;;;9.70;99.90;;;;;;5051408;28;20244;-82
2022/01/03 12:37:36;;;;;;;29.60;4.07;;;9.70;99.90;;;;;;5046271;28;20180;-80
2022/01/03 12:40:04;;;;;;;21.17;4.40;;;9.70;99.90;;;;;;5051241;28;20177;-82
2022/01/03 12:42:48;;;;;;;18.97;4.00;;;9.70;99.90;;;;;;5046565;28;20186;-80
2022/01/03 12:45:17;;;;;;;16.93;3.90;;;9.70;99.90;;;;;;5032122;28;20212;-81
2022/01/03 12:47:43;;;;;;;24.07;4.87;;;9.80;99.90;;;;;;5041094;28;20178;-82
2022/01/03 12:50:22;;;;;;;22.10;3.77;;;9.90;99.90;;;;;;5045466;28;20180;-81
2022/01/03 12:52:48;;;;;;;16.90;4.13;;;10.00;99.90;;;;;;5029547;28;20172;-81
2022/01/03 12:55:41;;;;;;;20.57;4.27;;;10.10;99.90;;;;;;5039216;28;20284;-82
2022/01/03 12:58:26;;;;;;;21.90;4.07;;;10.20;99.90;;;;;;5042943;28;20180;-81
2022/01/03 13:00:58;;;;;;;17.00;3.90;;;10.20;99.90;;;;;;5032758;28;20204;-81
2022/01/03 13:03:37;;;;;;;14.97;3.60;;;10.20;99.90;;;;;;5050419;28;20681;-82
2022/01/03 13:06:05;;;;;;;20.40;4.53;;;10.20;99.90;;;;;;5031991;28;20198;-82
2022/01/03 13:08:43;;;;;;;24.23;4.27;;;10.20;99.90;;;;;;5052179;28;20657;-80
2022/01/03 13:11:11;;;;;;;16.17;4.17;;;10.10;99.90;;;;;;5049712;28;20568;-79
2022/01/03 13:13:39;;;;;;;21.47;4.03;;;10.00;99.90;;;;;;5048049;28;20182;-79
2022/01/03 13:16:28;;;;;;;19.50;3.50;;;9.90;99.90;;;;;;5043286;28;20206;-79
2022/01/03 13:18:59;;;;;;;18.83;4.23;;;9.80;99.90;;;;;;5044249;28;20179;-79
2022/01/03 13:21:28;;;;;;;19.10;4.10;;;9.70;99.90;;;;;;5046654;28;20195;-79
2022/01/03 13:24:15;;;;;;;16.57;3.57;;;9.70;99.90;;;;;;5050775;28;20180;-79